Main page
METAR-TAF:

METAR-TAF

Airports :

Helsinki, Finland

Helsinki Airport

latitude: 60-19N, longitude: 024-58E, elevation: 51 m

Current weather observation

The report was made 14 minutes ago, at 16:20 UTC
Wind 6 kt from the North
Temperature -10°C
Humidity 79%
Pressure 1030 hPa
Visibility 10 km or more
Few clouds at a height of 1800 ft

METAR: EFHK 231620Z 35006KT 9999 FEW018 M10/M13 Q1030 NOSIG

Time: 18:34 (16:34 UTC)

Forecast

The report was made 2 hours and 4 minutes ago, at 14:30 UTC
Forecast valid from 23 at 15 UTC to 24 at 15 UTC
Wind 9 kt from the North
Visibility 10 km or more
Broken clouds at a height of 2000 ft
light snow

TAF: EFHK 231430Z 2315/2415 01009KT 9999 -SN BKN020

Weather observations and forecasts of more than 4000 airports (METAR and TAF reports).

The available stations are represented by yellow and red dots on the map.

Hover mouse over dot to see the name of the station.

Then click to see weather observations and forecasts.

To change the map : click on the green buttons with a black cross to zoom in, on the green button with a dash to zoom out, or on the green arrows for adjacent maps.


METAR-TAF: